SBCH Informações do Aeroporto

Informações da Pista
Pista 11 Comprimento 6768 ft Largura 148 ft
Elevação 0 ft Limite 0 ft Heading 0
Pista 29 Comprimento 6768 ft Largura 148 ft
Elevação 0 ft Limite 0 ft Heading 0
Frequências do Aeroporto
Tipo AFIS Nome RDO Frequência 130.85 MHZ
Navaids do Aeroporto
Tipo VOR-DME Nome Chapeco Frequência 116100 KHZ
Tipo NDB Nome Chapeco Frequência 173 KHZ
Informações meteorológicas do aeroporto e NOTAM
ADDS - METARS form results

(2252 UTC 22 March 2019)
Data provider http://aviationweather.gov/metar/data/
 
METAR text: SBCH 222200Z 00000KT 9999 FEW018 22/20 Q1018
Conditions at: SBCH (CHAPECO , BR) observed 2200 UTC 22 March 2019
Temperature: 22.0°C (72°F)
Dewpoint: 20.0°C (68°F) [RH = 88%]
Pressure (altimeter): 30.06 inches Hg (1018.0 mb)
Winds: calm
Visibility: 6 or more miles (10+ km)
Ceiling: at least 12,000 feet AGL
Clouds: few clouds at 1800 feet AGL
Weather: no significant weather observed at this time